Time;durP1;ratioP1;P1;durP2;ratioP2;P2;SDS_P1;SDS_P2;PMS_P1;PMS_P2;Temp;Humidity;BMP_temperature;BMP_pressure;BME280_temperature;BME280_humidity;BME280_pressure;Samples;Min_cycle;Max_cycle;Signal;HPM_P1;HPM_P2
2022/05/09 00:02:05;;;;;;;13.08;10.15;;;;;;;11.16;94.20;95172.50;1681865;85;21509;-52
2022/05/09 00:04:31;;;;;;;10.40;9.40;;;;;;;11.20;94.54;95171.77;1681774;84;21044;-54
2022/05/09 00:06:58;;;;;;;11.53;9.23;;;;;;;11.28;94.54;95178.00;1681843;85;21117;-54
2022/05/09 00:09:26;;;;;;;10.20;8.63;;;;;;;11.38;94.57;95174.13;1681943;84;21633;-54
2022/05/09 00:11:53;;;;;;;9.55;8.05;;;;;;;11.45;94.17;95172.55;1656656;85;21001;-53
2022/05/09 00:14:21;;;;;;;9.83;7.87;;;;;;;11.49;93.92;95171.06;1681788;85;21003;-52
2022/05/09 00:16:50;;;;;;;9.50;7.55;;;;;;;11.53;93.67;95166.95;1681709;85;21029;-53
2022/05/09 00:19:18;;;;;;;11.93;7.60;;;;;;;11.56;93.03;95159.83;1656994;85;21194;-54
2022/05/09 00:21:47;;;;;;;9.58;7.70;;;;;;;11.60;93.42;95166.78;1681481;85;21097;-53
2022/05/09 00:24:15;;;;;;;10.23;8.43;;;;;;;11.66;93.19;95164.21;1681870;85;21474;-53
2022/05/09 00:26:45;;;;;;;8.70;7.65;;;;;;;11.65;92.70;95163.45;1679435;85;21002;-53
2022/05/09 00:29:12;;;;;;;7.53;6.83;;;;;;;11.67;92.43;95167.91;1682002;85;21074;-52
2022/05/09 00:31:39;;;;;;;7.85;7.05;;;;;;;11.71;92.26;95166.43;1681794;85;21151;-52
2022/05/09 00:34:07;;;;;;;9.40;8.38;;;;;;;11.69;91.63;95164.10;1681479;85;21053;-54
2022/05/09 00:36:34;;;;;;;15.13;9.83;;;;;;;11.67;91.52;95163.78;1681730;85;21018;-52
2022/05/09 00:39:01;;;;;;;13.55;9.78;;;;;;;11.63;91.43;95164.51;1681770;85;20970;-53
2022/05/09 00:41:28;;;;;;;16.85;11.60;;;;;;;11.60;91.50;95159.10;1681667;84;21148;-54
2022/05/09 00:43:56;;;;;;;21.23;12.65;;;;;;;11.61;91.85;95165.56;1681759;85;21259;-53
2022/05/09 00:46:24;;;;;;;22.50;12.73;;;;;;;11.62;91.88;95161.59;1681594;85;20987;-53
2022/05/09 00:48:51;;;;;;;27.00;14.93;;;;;;;11.62;92.02;95160.80;1655218;85;20990;-54
2022/05/09 00:51:27;;;;;;;22.98;14.40;;;;;;;11.63;91.95;95160.97;1681771;85;21062;-51
2022/05/09 00:53:51;;;;;;;21.30;13.38;;;;;;;11.63;92.13;95160.37;1681041;84;20971;-53
2022/05/09 00:56:25;;;;;;;15.85;11.83;;;;;;;11.69;92.34;95159.21;1681895;85;21525;-54
2022/05/09 00:58:59;;;;;;;20.02;12.58;;;;;;;11.73;92.11;95157.86;1680703;85;21038;-53
2022/05/09 01:01:25;;;;;;;18.17;12.85;;;;;;;11.74;91.66;95163.53;1681861;85;21447;-51
2022/05/09 01:03:59;;;;;;;15.30;10.48;;;;;;;11.72;91.60;95163.21;1681752;85;21041;-52
2022/05/09 01:06:28;;;;;;;13.43;10.43;;;;;;;11.73;91.52;95165.38;1681996;85;21095;-52
2022/05/09 01:08:55;;;;;;;13.55;11.15;;;;;;;11.75;91.31;95159.56;1681756;85;21125;-52
2022/05/09 01:11:24;;;;;;;12.65;9.30;;;;;;;11.72;91.32;95159.08;1681401;85;20978;-53
2022/05/09 01:14:01;;;;;;;14.63;10.25;;;;;;;11.69;91.08;95168.23;1681626;85;20995;-52
2022/05/09 01:16:28;;;;;;;12.53;9.18;;;;;;;11.63;91.30;95163.72;1680651;85;21025;-53
2022/05/09 01:18:59;;;;;;;10.78;7.95;;;;;;;11.56;91.00;95165.34;1681698;85;20993;-54
2022/05/09 01:21:35;;;;;;;10.82;9.10;;;;;;;11.49;91.01;95166.31;1681738;85;21095;-54
2022/05/09 01:24:04;;;;;;;11.50;9.45;;;;;;;11.42;91.29;95161.63;1681649;85;20990;-52
2022/05/09 01:26:32;;;;;;;11.48;9.90;;;;;;;11.40;91.75;95163.47;1681699;84;20981;-52
2022/05/09 01:29:04;;;;;;;15.85;9.85;;;;;;;11.34;91.89;95165.83;1681764;85;21010;-52
2022/05/09 01:31:31;;;;;;;15.08;9.85;;;;;;;11.32;92.21;95169.02;1681794;85;21560;-54
2022/05/09 01:33:58;;;;;;;13.78;10.03;;;;;;;11.32;92.30;95169.02;1681663;85;21129;-53
2022/05/09 01:36:31;;;;;;;12.78;10.55;;;;;;;11.31;92.42;95170.23;1681567;85;21430;-53
2022/05/09 01:39:04;;;;;;;15.95;10.78;;;;;;;11.30;92.84;95163.77;1681856;85;21022;-52
2022/05/09 01:41:36;;;;;;;9.75;8.70;;;;;;;11.30;92.95;95167.31;1681878;84;21015;-51
2022/05/09 01:44:04;;;;;;;9.33;8.23;;;;;;;11.29;93.09;95168.52;1682092;85;21049;-52
2022/05/09 01:46:32;;;;;;;10.10;8.73;;;;;;;11.31;93.00;95166.09;1681553;85;21197;-53
2022/05/09 01:51:46;;;;;;;10.85;9.15;;;;;;;11.24;92.89;95170.47;1660295;85;20994;-53
2022/05/09 01:54:14;;;;;;;9.73;8.68;;;;;;;11.17;92.89;95161.03;1681748;85;21034;-54
2022/05/09 01:56:41;;;;;;;9.65;6.60;;;;;;;11.13;92.90;95163.74;1681903;85;21526;-53
2022/05/09 01:59:10;;;;;;;7.40;6.62;;;;;;;11.08;92.73;95166.44;1681580;85;21233;-53
2022/05/09 02:01:40;;;;;;;8.08;7.28;;;;;;;11.03;93.02;95164.23;1681669;85;21057;-54
2022/05/09 02:04:07;;;;;;;10.00;8.20;;;;;;;11.00;93.29;95169.22;1681625;85;21155;-54
2022/05/09 02:06:33;;;;;;;8.20;7.25;;;;;;;10.92;93.14;95169.28;1681916;85;21431;-54
2022/05/09 02:09:03;;;;;;;11.55;7.95;;;;;;;10.86;93.31;95164.16;1681542;85;21055;-53
2022/05/09 02:11:29;;;;;;;7.60;6.80;;;;;;;10.84;93.60;95173.44;1681715;85;21215;-52
2022/05/09 02:13:56;;;;;;;8.85;7.75;;;;;;;10.83;93.69;95176.02;1681478;85;21158;-53
2022/05/09 02:16:23;;;;;;;8.80;7.90;;;;;;;10.81;93.83;95169.44;1681806;85;21018;-53
2022/05/09 02:18:49;;;;;;;8.70;7.42;;;;;;;10.77;93.80;95175.03;1681971;85;21038;-53
2022/05/09 02:21:16;;;;;;;7.70;7.03;;;;;;;10.72;93.81;95174.80;1681504;85;21104;-53
2022/05/09 02:23:43;;;;;;;7.53;5.95;;;;;;;10.70;93.67;95169.58;1681633;85;21764;-56
2022/05/09 02:26:10;;;;;;;10.63;8.73;;;;;;;10.66;93.74;95167.51;1681457;84;21032;-52
2022/05/09 02:28:36;;;;;;;16.85;9.23;;;;;;;10.61;93.46;95175.72;1681816;85;21529;-54
2022/05/09 02:31:03;;;;;;;10.63;8.38;;;;;;;10.51;93.28;95179.53;1681680;85;20985;-53
2022/05/09 02:33:29;;;;;;;20.90;9.53;;;;;;;10.44;93.44;95174.83;1682062;85;21093;-53
2022/05/09 02:35:58;;;;;;;14.23;8.08;;;;;;;10.42;93.74;95177.25;1681770;85;22135;-53
2022/05/09 02:38:24;;;;;;;15.00;8.85;;;;;;;10.39;93.91;95176.13;1681578;85;20966;-53
2022/05/09 02:40:53;;;;;;;10.28;7.87;;;;;;;10.34;94.07;95177.28;1681867;85;20987;-52
2022/05/09 02:43:20;;;;;;;10.10;8.13;;;;;;;10.29;94.39;95177.20;1686500;85;21062;-53
2022/05/09 02:45:47;;;;;;;8.40;7.45;;;;;;;10.26;94.49;95175.33;1687355;85;21081;-52
2022/05/09 02:48:14;;;;;;;9.60;8.60;;;;;;;10.22;94.45;95180.16;1687079;85;21125;-52
2022/05/09 02:50:40;;;;;;;10.20;9.10;;;;;;;10.17;94.53;95183.42;1687118;84;21593;-53
2022/05/09 02:53:10;;;;;;;9.68;8.68;;;;;;;10.10;94.61;95184.20;1687254;85;21081;-53
2022/05/09 02:55:39;;;;;;;8.80;7.87;;;;;;;10.04;94.84;95186.73;1687492;85;21030;-51
2022/05/09 02:58:05;;;;;;;8.78;7.58;;;;;;;10.00;94.91;95187.99;1687172;85;20978;-53
2022/05/09 03:00:33;;;;;;;11.33;8.33;;;;;;;9.95;94.87;95183.03;1687055;85;21257;-53
2022/05/09 03:05:47;;;;;;;11.25;7.72;;;;;;;9.89;95.37;95188.86;1687215;85;21052;-53
2022/05/09 03:08:14;;;;;;;9.73;7.28;;;;;;;9.89;95.70;95195.14;1687233;85;21074;-55
2022/05/09 03:10:41;;;;;;;9.98;6.65;;;;;;;9.88;95.29;95191.44;1687313;85;20986;-53
2022/05/09 03:13:09;;;;;;;12.13;7.62;;;;;;;9.84;95.21;95190.76;1687119;85;21127;-52
2022/05/09 03:15:38;;;;;;;10.08;7.58;;;;;;;9.82;95.09;95193.17;1687219;83;21450;-55
2022/05/09 03:18:06;;;;;;;9.30;7.22;;;;;;;9.76;94.99;95194.28;1687242;84;21481;-54
2022/05/09 03:20:34;;;;;;;16.87;7.72;;;;;;;9.72;95.25;95198.31;1687333;85;21025;-53
2022/05/09 03:23:02;;;;;;;9.18;7.58;;;;;;;9.70;95.28;95191.89;1670858;85;20990;-52
2022/05/09 03:25:29;;;;;;;14.28;7.55;;;;;;;9.69;95.21;95199.18;1687264;85;21124;-54
2022/05/09 03:27:57;;;;;;;13.43;8.65;;;;;;;9.69;95.42;95195.84;1687203;85;21061;-54
2022/05/09 03:30:24;;;;;;;15.55;8.35;;;;;;;9.69;95.47;95199.18;1687140;85;21009;-52
2022/05/09 03:32:52;;;;;;;12.95;7.47;;;;;;;9.70;95.55;95202.10;1687175;85;21017;-53
2022/05/09 03:35:19;;;;;;;9.18;7.25;;;;;;;9.71;95.65;95203.05;1664992;85;21041;-52
2022/05/09 03:37:46;;;;;;;8.65;7.60;;;;;;;9.77;95.74;95201.94;1687159;85;22275;-53
2022/05/09 03:40:13;;;;;;;16.75;8.03;;;;;;;9.83;95.67;95194.72;1687202;85;21462;-53
2022/05/09 03:42:41;;;;;;;12.63;8.33;;;;;;;9.89;95.95;95201.23;1685541;84;21501;-53
2022/05/09 03:45:08;;;;;;;9.80;7.37;;;;;;;9.95;95.80;95198.14;1681714;84;21109;-54
2022/05/09 03:47:35;;;;;;;8.93;7.83;;;;;;;9.93;95.12;95201.31;1681909;85;21046;-52
2022/05/09 03:50:04;;;;;;;8.70;7.70;;;;;;;9.91;94.81;95207.84;1681806;85;21141;-52
2022/05/09 03:52:33;;;;;;;10.23;8.45;;;;;;;9.90;94.63;95220.63;1682057;85;20970;-52
2022/05/09 03:55:00;;;;;;;9.95;8.28;;;;;;;9.91;94.88;95224.34;1681851;85;21017;-52
2022/05/09 03:57:27;;;;;;;9.30;8.40;;;;;;;9.94;95.03;95224.05;1681610;85;21041;-52
2022/05/09 03:59:53;;;;;;;12.60;7.58;;;;;;;9.99;94.83;95230.42;1681884;85;21022;-53
2022/05/09 04:02:20;;;;;;;14.15;8.68;;;;;;;9.98;94.29;95227.52;1681592;85;21810;-52
2022/05/09 04:04:46;;;;;;;18.67;9.03;;;;;;;9.94;94.05;95220.72;1681606;85;21060;-53
2022/05/09 04:07:14;;;;;;;10.53;8.45;;;;;;;9.92;94.00;95225.09;1681865;85;21030;-53
2022/05/09 04:09:41;;;;;;;14.33;9.33;;;;;;;9.91;93.86;95229.05;1681572;85;21105;-52
2022/05/09 04:12:10;;;;;;;11.55;7.80;;;;;;;9.87;93.81;95230.53;1681913;85;21006;-54
2022/05/09 04:17:21;;;;;;;11.35;8.80;;;;;;;9.90;93.97;95228.28;1681854;85;20990;-53
2022/05/09 04:19:48;;;;;;;16.27;9.55;;;;;;;9.95;94.08;95231.13;1681826;85;21574;-53
2022/05/09 04:22:15;;;;;;;12.90;8.40;;;;;;;10.01;94.44;95232.14;1681709;85;21006;-53
2022/05/09 04:24:43;;;;;;;10.85;8.60;;;;;;;10.12;94.51;95235.41;1681953;85;21034;-53
2022/05/09 04:27:10;;;;;;;19.80;8.08;;;;;;;10.19;94.18;95235.23;1681769;85;22127;-54
2022/05/09 04:29:38;;;;;;;13.55;9.18;;;;;;;10.32;93.95;95241.58;1681860;85;21601;-53
2022/05/09 04:32:07;;;;;;;17.55;9.58;;;;;;;10.40;93.29;95237.42;1681522;85;21051;-52
2022/05/09 04:34:35;;;;;;;21.23;10.35;;;;;;;10.44;92.84;95237.50;1681504;84;21462;-53
2022/05/09 04:37:02;;;;;;;20.65;12.82;;;;;;;10.45;92.51;95239.05;1681745;85;21085;-50
2022/05/09 04:39:29;;;;;;;18.12;11.20;;;;;;;10.48;92.21;95241.52;1681486;85;21111;-52
2022/05/09 04:41:56;;;;;;;28.55;10.60;;;;;;;10.51;91.94;95240.67;1656483;85;20982;-52
2022/05/09 04:44:23;;;;;;;13.13;9.58;;;;;;;10.59;91.74;95246.13;1682009;85;20981;-57
2022/05/09 04:46:50;;;;;;;21.82;11.68;;;;;;;10.70;92.05;95246.63;1686336;84;21085;-56
2022/05/09 04:49:16;;;;;;;26.87;10.93;;;;;;;10.81;91.31;95259.64;1686894;85;21087;-52
2022/05/09 04:51:43;;;;;;;22.10;11.15;;;;;;;10.89;90.95;95256.87;1686982;85;21837;-51
2022/05/09 04:54:10;;;;;;;27.98;14.75;;;;;;;10.98;90.80;95256.98;1686989;85;21001;-54
2022/05/09 04:56:36;;;;;;;34.92;15.58;;;;;;;11.07;89.87;95253.59;1687145;85;21139;-51
2022/05/09 04:59:05;;;;;;;30.57;15.43;;;;;;;11.15;89.26;95261.21;1687212;85;21029;-53
2022/05/09 05:01:32;;;;;;;17.67;12.20;;;;;;;11.19;88.65;95256.98;1687082;85;21600;-52
2022/05/09 05:04:49;;;;;;;23.92;13.30;;;;;;;11.26;88.24;95260.30;1687121;85;21486;-54
2022/05/09 05:07:15;;;;;;;18.10;12.60;;;;;;;11.29;88.04;95261.39;1687206;85;20978;-52
2022/05/09 05:09:42;;;;;;;28.47;12.85;;;;;;;11.37;87.58;95263.49;1687338;85;21026;-53
2022/05/09 05:12:10;;;;;;;16.10;10.78;;;;;;;11.42;87.27;95263.56;1687134;85;21069;-55
2022/05/09 05:14:36;;;;;;;16.10;10.85;;;;;;;11.52;87.10;95265.98;1665550;85;21052;-54
2022/05/09 05:17:04;;;;;;;17.23;10.88;;;;;;;11.62;86.64;95266.31;1686975;85;21314;-53
2022/05/09 05:23:33;;;;;;;20.52;9.85;;;;;;;11.68;85.86;95264.54;1685013;85;21025;-57
2022/05/09 05:26:00;;;;;;;14.23;10.98;;;;;;;11.81;85.29;95265.31;1661642;85;21074;-52
2022/05/09 05:29:04;;;;;;;22.10;13.35;;;;;;;11.92;84.89;95270.48;1676773;85;21120;-56
2022/05/09 05:31:30;;;;;;;48.25;14.30;;;;;;;12.00;84.50;95258.79;1684780;85;21210;-55
2022/05/09 05:33:57;;;;;;;48.33;21.40;;;;;;;12.08;84.13;95260.09;1685003;85;21648;-55
2022/05/09 05:36:24;;;;;;;27.35;14.60;;;;;;;12.12;84.05;95264.88;1686763;85;20994;-55
2022/05/09 05:38:53;;;;;;;27.00;12.65;;;;;;;12.21;83.84;95260.05;1663866;85;21021;-59
2022/05/09 05:41:20;;;;;;;28.55;13.38;;;;;;;12.28;83.14;95259.21;1628950;87;21026;-53
2022/05/09 05:43:48;;;;;;;20.72;12.15;;;;;;;12.34;82.89;95267.11;1651053;85;21560;-56
2022/05/09 05:46:15;;;;;;;25.40;15.00;;;;;;;12.39;82.59;95266.53;1651115;85;21085;-53
2022/05/09 05:48:41;;;;;;;29.82;17.75;;;;;;;12.44;82.32;95263.20;1649899;85;21480;-53
2022/05/09 05:51:08;;;;;;;31.45;18.95;;;;;;;12.43;82.32;95264.42;1650822;85;21518;-53
2022/05/09 05:53:35;;;;;;;34.27;16.27;;;;;;;12.47;82.35;95267.83;1606010;87;21128;-55
2022/05/09 05:56:03;;;;;;;22.93;14.43;;;;;;;12.54;81.92;95271.73;1635301;86;21266;-55
2022/05/09 05:58:30;;;;;;;20.72;13.28;;;;;;;12.61;81.52;95272.86;1632317;86;21123;-56
2022/05/09 06:00:56;;;;;;;27.02;14.00;;;;;;;12.70;81.10;95271.58;1634612;86;21088;-55
2022/05/09 06:03:23;;;;;;;14.80;11.10;;;;;;;12.77;81.17;95272.70;1628562;86;21537;-54
2022/05/09 06:05:50;;;;;;;18.30;11.90;;;;;;;12.92;81.37;95270.98;1629653;85;21169;-54
2022/05/09 06:08:17;;;;;;;22.82;12.07;;;;;;;13.04;80.75;95268.80;1614413;87;21263;-55
2022/05/09 06:10:43;;;;;;;36.38;13.55;;;;;;;13.14;80.47;95267.63;1631063;87;22478;-55
2022/05/09 06:13:11;;;;;;;19.32;10.63;;;;;;;13.31;80.25;95265.60;1636298;87;21056;-57
2022/05/09 06:15:37;;;;;;;13.55;9.13;;;;;;;13.55;79.67;95278.30;1636964;87;21127;-57
2022/05/09 06:18:08;;;;;;;14.18;9.40;;;;;;;13.76;78.27;95268.58;1636402;87;21213;-56
2022/05/09 06:20:37;;;;;;;13.13;8.55;;;;;;;13.86;77.49;95276.30;1633546;86;21263;-56
2022/05/09 06:23:04;;;;;;;15.08;9.68;;;;;;;13.96;77.18;95277.89;1635240;87;21155;-56
2022/05/09 06:25:36;;;;;;;15.40;8.03;;;;;;;14.00;76.62;95275.75;1636729;87;21105;-58
2022/05/09 06:28:05;;;;;;;9.25;7.90;;;;;;;14.05;76.74;95273.16;1627847;87;21070;-57
2022/05/09 06:30:32;;;;;;;17.05;9.68;;;;;;;14.12;76.48;95273.46;1614661;87;21009;-55
2022/05/09 06:32:59;;;;;;;12.60;7.92;;;;;;;14.21;76.34;95268.00;1635879;87;21771;-55
2022/05/09 06:35:26;;;;;;;12.95;8.65;;;;;;;14.31;76.09;95270.92;1609335;87;21112;-56
2022/05/09 06:38:05;;;;;;;17.17;8.53;;;;;;;14.41;75.71;95268.34;1637281;87;21124;-55
2022/05/09 06:40:35;;;;;;;9.25;7.47;;;;;;;14.49;75.32;95266.96;1639080;86;21140;-55
2022/05/09 06:43:03;;;;;;;18.85;7.87;;;;;;;14.57;75.19;95272.97;1637507;87;21068;-56
2022/05/09 06:45:33;;;;;;;12.28;7.00;;;;;;;14.65;75.01;95273.59;1636396;87;22290;-57
2022/05/09 06:48:00;;;;;;;8.30;6.40;;;;;;;14.79;74.90;95275.77;1636320;86;21062;-55
2022/05/09 06:50:29;;;;;;;9.95;7.53;;;;;;;14.95;74.38;95269.92;1636404;86;21068;-56
2022/05/09 06:53:10;;;;;;;11.40;7.22;;;;;;;15.14;73.96;95265.91;1634874;87;21509;-59
2022/05/09 06:55:39;;;;;;;11.28;8.40;;;;;;;15.30;73.20;95274.53;1632527;87;21076;-56
2022/05/09 06:58:12;;;;;;;7.97;6.97;;;;;;;15.45;73.05;95274.05;1627049;87;21278;-57
2022/05/09 07:00:39;;;;;;;10.03;6.95;;;;;;;15.65;71.98;95272.31;1641487;86;21119;-57
2022/05/09 07:03:07;;;;;;;7.58;6.65;;;;;;;15.80;71.69;95269.03;1638880;85;21069;-59
2022/05/09 07:05:37;;;;;;;8.20;7.25;;;;;;;15.94;71.01;95266.95;1635275;85;21038;-58
2022/05/09 07:08:07;;;;;;;11.57;7.40;;;;;;;16.07;70.30;95259.19;1614852;86;21001;-59
2022/05/09 07:10:35;;;;;;;12.95;7.35;;;;;;;16.28;69.91;95269.26;1639822;86;21233;-56
2022/05/09 07:13:04;;;;;;;10.08;6.75;;;;;;;16.50;68.61;95269.77;1628772;86;21101;-57
2022/05/09 07:15:33;;;;;;;9.55;6.45;;;;;;;16.72;66.93;95260.55;1633729;86;21216;-56
2022/05/09 07:17:59;;;;;;;9.48;5.72;;;;;;;16.91;66.02;95261.94;1636241;86;21442;-57
2022/05/09 07:20:28;;;;;;;6.72;5.97;;;;;;;17.06;64.98;95265.53;1637239;86;21571;-56
2022/05/09 07:23:07;;;;;;;8.58;5.60;;;;;;;17.23;65.04;95262.41;1601431;87;21902;-57
2022/05/09 07:25:36;;;;;;;9.73;6.60;;;;;;;17.40;64.51;95251.00;1617738;88;21093;-57
2022/05/09 07:28:04;;;;;;;12.63;6.47;;;;;;;17.53;63.98;95248.72;1618262;88;21073;-59
2022/05/09 07:30:34;;;;;;;9.50;5.47;;;;;;;17.64;63.46;95246.13;1621841;88;21564;-55
2022/05/09 07:33:08;;;;;;;18.12;5.42;;;;;;;17.81;62.53;95254.89;1617937;87;21193;-59
2022/05/09 07:35:38;;;;;;;9.00;5.50;;;;;;;18.04;61.38;95247.67;1602127;86;21332;-59
2022/05/09 07:38:05;;;;;;;6.83;4.92;;;;;;;18.26;60.00;95256.49;1625628;86;20963;-55
2022/05/09 07:40:33;;;;;;;13.85;5.42;;;;;;;18.48;58.43;95255.44;1620436;88;21457;-58
2022/05/09 07:43:03;;;;;;;5.45;4.70;;;;;;;18.65;58.64;95261.26;1622949;85;21053;-57
2022/05/09 07:45:32;;;;;;;8.23;4.65;;;;;;;18.82;59.03;95262.24;1618330;88;21046;-55
2022/05/09 07:48:10;;;;;;;7.17;4.40;;;;;;;19.03;56.92;95251.97;1600777;87;21853;-57
2022/05/09 07:50:37;;;;;;;8.23;3.80;;;;;;;19.22;56.11;95252.48;1627613;87;21784;-55
2022/05/09 07:53:11;;;;;;;6.37;4.37;;;;;;;19.40;56.25;95249.38;1617475;87;21023;-57
2022/05/09 07:55:40;;;;;;;6.35;4.62;;;;;;;19.53;53.91;95246.98;1625670;87;21045;-59
2022/05/09 07:58:09;;;;;;;5.25;3.98;;;;;;;19.66;54.80;95248.73;1626524;87;21125;-57
2022/05/09 08:00:38;;;;;;;10.43;4.50;;;;;;;19.79;53.89;95244.30;1621768;85;21226;-57
2022/05/09 08:03:06;;;;;;;4.72;4.08;;;;;;;19.87;53.17;95248.17;1633167;85;21106;-57
2022/05/09 08:05:34;;;;;;;5.50;4.50;;;;;;;19.93;53.15;95248.97;1646154;85;21443;-58
2022/05/09 08:08:01;;;;;;;3.92;3.30;;;;;;;20.00;53.34;95253.34;1577654;88;20943;-56
2022/05/09 08:10:29;;;;;;;8.63;4.50;;;;;;;20.09;52.50;95248.38;1631900;86;21571;-58
2022/05/09 08:12:58;;;;;;;14.93;4.72;;;;;;;20.15;52.07;95244.98;1608192;87;48722;-57
2022/05/09 08:15:26;;;;;;;6.83;4.05;;;;;;;20.24;52.76;95240.61;1629629;86;21140;-56
2022/05/09 08:17:54;;;;;;;7.67;3.62;;;;;;;20.42;51.77;95250.01;1636405;86;21512;-56
2022/05/09 08:20:21;;;;;;;8.70;4.50;;;;;;;20.53;51.50;95245.89;1627221;87;21088;-55
2022/05/09 08:22:49;;;;;;;6.03;3.85;;;;;;;20.57;50.49;95245.02;1626607;87;21458;-54
2022/05/09 08:25:16;;;;;;;8.65;4.40;;;;;;;20.55;51.01;95244.11;1603978;87;21241;-57
2022/05/09 08:27:43;;;;;;;8.05;4.65;;;;;;;20.55;51.16;95246.91;1633165;87;21069;-58
2022/05/09 08:30:12;;;;;;;5.05;4.20;;;;;;;20.68;49.85;95250.04;1622442;87;21071;-56
2022/05/09 08:32:39;;;;;;;5.92;4.20;;;;;;;20.72;49.32;95247.02;1610166;87;20998;-57
2022/05/09 08:35:13;;;;;;;9.30;3.92;;;;;;;20.79;49.01;95240.32;1673450;84;21041;-54
2022/05/09 08:37:43;;;;;;;3.67;3.37;;;;;;;20.86;48.51;95246.08;1676251;84;21287;-57
2022/05/09 08:40:10;;;;;;;4.85;3.58;;;;;;;20.91;47.92;95251.70;1651114;84;21151;-54
2022/05/09 08:42:50;;;;;;;6.78;3.67;;;;;;;20.89;47.09;95253.49;1674319;84;21037;-56
2022/05/09 08:45:30;;;;;;;5.00;4.10;;;;;;;20.74;48.67;95262.66;1679771;84;21628;-56
2022/05/09 08:48:16;;;;;;;4.22;3.67;;;;;;;20.62;48.30;95252.05;1657595;85;21767;-55
2022/05/09 08:51:09;;;;;;;4.20;3.27;;;;;;;20.50;48.58;95253.86;1682846;85;27305;-57
2022/05/09 08:53:39;;;;;;;6.58;4.45;;;;;;;20.36;49.58;95252.02;1676507;83;21106;-57
2022/05/09 08:56:06;;;;;;;7.15;3.72;;;;;;;20.19;49.39;95254.67;1678299;83;21067;-54
2022/05/09 08:58:56;;;;;;;6.53;3.77;;;;;;;20.04;48.97;95258.88;1681417;85;21589;-57
2022/05/09 09:01:53;;;;;;;13.45;4.30;;;;;;;19.81;48.93;95261.33;1681985;85;21024;-57
2022/05/09 09:04:23;;;;;;;9.70;4.17;;;;;;;19.71;49.95;95254.38;1659658;85;21246;-56
2022/05/09 09:07:01;;;;;;;7.53;4.67;;;;;;;19.89;51.12;95261.01;1685284;83;21022;-58
2022/05/09 09:09:52;;;;;;;6.25;3.92;;;;;;;20.19;51.47;95262.30;1679448;83;21304;-55
2022/05/09 09:12:27;;;;;;;7.65;3.90;;;;;;;20.50;50.13;95260.23;1682273;85;21615;-56
2022/05/09 09:15:19;;;;;;;7.58;3.30;;;;;;;20.87;49.48;95254.59;1681134;83;21065;-60
2022/05/09 09:18:22;;;;;;;3.98;2.98;;;;;;;21.10;48.50;95259.05;1679232;83;21138;-60
2022/05/09 09:20:59;;;;;;;11.45;3.75;;;;;;;21.14;47.40;95249.77;1675694;83;26971;-56
2022/05/09 09:23:41;;;;;;;4.35;2.90;;;;;;;21.07;46.31;95250.27;1680365;83;21138;-59
2022/05/09 09:26:37;;;;;;;4.28;3.42;;;;;;;21.03;47.32;95249.72;1670872;83;21080;-62
2022/05/09 09:29:14;;;;;;;3.55;3.15;;;;;;;21.06;47.74;95249.48;1675833;83;21036;-58
2022/05/09 09:31:47;;;;;;;3.60;3.25;;;;;;;21.25;46.53;95249.16;1682573;83;21819;-54
2022/05/09 09:34:26;;;;;;;5.30;3.75;;;;;;;21.47;46.37;95247.08;1677217;84;20998;-56
2022/05/09 09:37:11;;;;;;;6.58;4.15;;;;;;;21.65;47.49;95243.83;1681032;83;21404;-60
2022/05/09 09:39:38;;;;;;;8.15;4.22;;;;;;;21.86;46.15;95243.72;1682858;83;21093;-58
2022/05/09 09:42:06;;;;;;;3.85;3.37;;;;;;;22.04;46.45;95248.95;1687359;83;21103;-60
2022/05/09 09:44:36;;;;;;;6.75;3.60;;;;;;;22.17;46.21;95243.61;1662460;83;21264;-54
2022/05/09 09:47:13;;;;;;;4.15;3.52;;;;;;;22.22;45.29;95251.24;1650983;85;21531;-56
2022/05/09 09:49:43;;;;;;;3.75;3.37;;;;;;;22.11;43.84;95251.89;1683697;84;21013;-55
2022/05/09 09:52:23;;;;;;;33.88;4.78;;;;;;;21.80;43.91;95249.31;1673214;84;21076;-59
2022/05/09 09:54:55;;;;;;;3.70;3.33;;;;;;;21.43;44.70;95253.53;1671405;84;21067;-56
2022/05/09 09:57:35;;;;;;;6.65;3.85;;;;;;;21.03;45.59;95258.11;1676058;84;21916;-55
2022/05/09 10:00:19;;;;;;;4.33;3.67;;;;;;;20.70;47.36;95262.14;1679680;84;21050;-57
2022/05/09 10:02:48;;;;;;;4.62;4.17;;;;;;;20.34;48.09;95261.53;1689008;84;21065;-55
2022/05/09 10:05:20;;;;;;;7.72;3.70;;;;;;;20.07;50.00;95266.27;1678500;85;21399;-56
2022/05/09 10:07:48;;;;;;;6.40;4.67;;;;;;;20.10;50.37;95259.68;1678863;84;21082;-55
2022/05/09 10:10:23;;;;;;;8.55;4.80;;;;;;;20.35;51.22;95260.27;1680185;84;21490;-57
2022/05/09 10:12:56;;;;;;;8.73;4.25;;;;;;;20.50;50.57;95259.45;1680004;85;21016;-58
2022/05/09 10:15:34;;;;;;;7.67;4.00;;;;;;;20.52;48.84;95252.75;1686439;84;20962;-57
2022/05/09 10:17:59;;;;;;;7.25;4.17;;;;;;;20.48;49.07;95252.20;1669372;84;21312;-56
2022/05/09 10:20:39;;;;;;;7.05;4.85;;;;;;;20.45;49.10;95254.59;1639993;85;21080;-58
2022/05/09 10:26:22;;;;;;;6.87;4.50;;;;;;;20.28;49.36;95258.69;1677855;84;21100;-58
2022/05/09 10:28:55;;;;;;;5.65;4.50;;;;;;;20.18;50.02;95262.17;1675758;84;21079;-56
2022/05/09 10:31:37;;;;;;;7.15;4.28;;;;;;;20.01;50.21;95265.44;1680401;83;21054;-60
2022/05/09 10:34:26;;;;;;;10.63;4.67;;;;;;;19.81;51.57;95266.13;1670764;84;21167;-59
2022/05/09 10:37:01;;;;;;;7.60;4.42;;;;;;;19.63;52.34;95270.66;1676101;84;21142;-57
2022/05/09 10:39:34;;;;;;;5.75;4.75;;;;;;;19.43;52.60;95269.31;1673098;85;21098;-57
2022/05/09 10:42:06;;;;;;;8.95;4.70;;;;;;;19.34;52.74;95275.82;1639850;86;20994;-56
2022/05/09 10:44:57;;;;;;;6.50;4.40;;;;;;;19.51;53.31;95279.55;1687957;84;20944;-58
2022/05/09 10:47:46;;;;;;;5.87;4.03;;;;;;;20.02;53.64;95272.58;1674914;84;21074;-56
2022/05/09 10:50:39;;;;;;;5.30;4.60;;;;;;;20.75;50.28;95275.37;1672729;85;21370;-56
2022/05/09 10:53:30;;;;;;;5.17;4.00;;;;;;;21.51;50.02;95255.98;1676535;83;21458;-59
2022/05/09 10:56:24;;;;;;;6.45;4.12;;;;;;;22.14;48.97;95257.22;1685262;83;21129;-57
2022/05/09 10:59:07;;;;;;;6.67;4.25;;;;;;;22.80;46.20;95258.56;1676592;84;21034;-55
2022/05/09 11:01:44;;;;;;;6.05;4.15;;;;;;;23.36;46.21;95261.32;1686418;83;21135;-58
2022/05/09 11:04:12;;;;;;;11.22;4.42;;;;;;;23.79;44.86;95252.51;1680008;84;21144;-59
2022/05/09 11:06:48;;;;;;;4.30;3.90;;;;;;;24.24;43.82;95251.69;1679516;83;21077;-59
2022/05/09 11:09:57;;;;;;;7.37;3.83;;;;;;;24.68;43.67;95245.70;1660326;85;21025;-57
2022/05/09 11:13:19;;;;;;;6.78;3.75;;;;;;;25.12;42.27;95247.27;1682164;83;21538;-58
2022/05/09 11:16:14;;;;;;;6.60;4.60;;;;;;;25.52;40.63;95246.27;1575450;90;21072;-58
2022/05/09 11:18:56;;;;;;;6.17;2.85;;;;;;;26.04;38.52;95231.80;1578402;89;21257;-58
2022/05/09 11:21:40;;;;;;;7.25;3.50;;;;;;;26.23;36.80;95236.13;1670570;83;21097;-54
2022/05/09 11:24:19;;;;;;;5.85;3.37;;;;;;;26.38;38.70;95230.75;1682541;83;21652;-58
2022/05/09 11:27:06;;;;;;;5.97;3.47;;;;;;;26.87;36.98;95227.69;1681157;85;21104;-57
2022/05/09 11:29:41;;;;;;;6.12;3.12;;;;;;;27.21;35.50;95212.30;1681692;83;21116;-57
2022/05/09 11:32:32;;;;;;;8.63;3.17;;;;;;;27.29;35.19;95213.15;1682918;83;22167;-57
2022/05/09 11:35:28;;;;;;;5.17;2.80;;;;;;;27.56;37.96;95221.03;1684611;83;21127;-58
2022/05/09 11:38:04;;;;;;;7.83;3.80;;;;;;;27.49;35.72;95220.30;1678106;83;21041;-57
2022/05/09 11:40:46;;;;;;;6.20;3.45;;;;;;;27.13;35.54;95212.20;1687443;83;21041;-57
2022/05/09 11:43:59;;;;;;;7.85;4.22;;;;;;;26.81;35.46;95210.09;1683696;83;21031;-59
2022/05/09 11:47:04;;;;;;;10.48;3.35;;;;;;;26.55;35.64;95211.48;1664488;85;21163;-58
2022/05/09 11:49:46;;;;;;;2.55;2.30;;;;;;;26.91;34.98;95201.95;1691724;83;21056;-58
2022/05/09 11:52:27;;;;;;;5.83;2.37;;;;;;;27.17;36.12;95194.89;1675513;83;21097;-59
2022/05/09 11:54:57;;;;;;;4.97;3.40;;;;;;;27.25;34.17;95202.16;1656161;85;21072;-57
2022/05/09 11:57:32;;;;;;;4.62;2.50;;;;;;;27.27;33.79;95195.34;1657592;85;20985;-56
2022/05/09 12:00:05;;;;;;;7.00;2.60;;;;;;;27.05;34.23;95190.09;1681603;85;21511;-58
2022/05/09 12:02:51;;;;;;;6.28;3.12;;;;;;;26.63;34.08;95192.59;1685816;83;21711;-59
2022/05/09 12:05:33;;;;;;;4.97;3.42;;;;;;;26.08;35.02;95188.56;1685161;83;21046;-57
2022/05/09 12:08:19;;;;;;;6.47;2.90;;;;;;;25.56;36.65;95189.72;1685092;83;21081;-53